Aylmer, North Dakota
Current Conditions -  °F | °C
As of 10:55 AM on Thursday 30 Oct 2014 (Local Time) from K5H4 Reporting Station
NA  
Wind Chill: 21°   Ceiling: NA
Heat Index: 32°   Visibility: 10mi
Dew Point: 32°   Wind: 16mph
Humidity: 100%   Direction: 360°N
Pressure: 30.34"   Gusts: NA
Location:  47.8487°N, 100.262°W
Report Text: K5H4 301555Z AUTO 36014KT 10SM 00/00 A3034 RMK AO2
Loading
Personal Weather Stations






























Interactive Weather Map New forecast layout! Learn more

10-Day Weather Forecast

Advertisements
Track Severe Weather on mobile